Time;durP1;ratioP1;P1;durP2;ratioP2;P2;SDS_P1;SDS_P2;PMS_P1;PMS_P2;Temp;Humidity;BMP_temperature;BMP_pressure;BME280_temperature;BME280_humidity;BME280_pressure;Samples;Min_cycle;Max_cycle;Signal;HPM_P1;HPM_P2
2021/08/25 00:01:46;;;;;;;7.78;4.28;;;16.30;93.00;;;;;;5030177;28;20040;-38
2021/08/25 00:04:12;;;;;;;6.63;4.47;;;16.30;93.10;;;;;;5029944;28;20057;-38
2021/08/25 00:06:37;;;;;;;6.20;4.15;;;16.20;93.30;;;;;;5030327;28;20385;-41
2021/08/25 00:09:04;;;;;;;6.78;4.40;;;16.20;93.60;;;;;;5030401;28;20469;-38
2021/08/25 00:11:30;;;;;;;5.75;3.92;;;16.20;93.60;;;;;;5030058;28;20026;-40
2021/08/25 00:13:55;;;;;;;5.32;4.20;;;16.20;93.80;;;;;;5029666;28;20039;-39
2021/08/25 00:16:21;;;;;;;6.30;3.80;;;16.20;93.90;;;;;;5029858;28;20037;-41
2021/08/25 00:18:47;;;;;;;6.40;4.45;;;16.20;94.10;;;;;;5029262;28;20041;-41
2021/08/25 00:21:13;;;;;;;6.22;4.00;;;16.20;94.20;;;;;;5030681;28;20029;-36
2021/08/25 00:23:38;;;;;;;6.93;4.07;;;16.20;94.30;;;;;;5029506;28;20037;-38
2021/08/25 00:26:04;;;;;;;6.70;4.22;;;16.10;94.40;;;;;;5029861;28;20020;-40
2021/08/25 00:28:29;;;;;;;8.35;4.57;;;16.20;94.50;;;;;;5026357;28;20084;-39
2021/08/25 00:30:55;;;;;;;6.50;4.15;;;16.10;94.60;;;;;;5029459;28;20041;-40
2021/08/25 00:33:20;;;;;;;7.68;4.43;;;16.20;94.70;;;;;;5030037;28;20501;-40
2021/08/25 00:35:46;;;;;;;6.55;4.15;;;16.10;94.80;;;;;;5029821;28;20030;-38
2021/08/25 00:38:11;;;;;;;7.18;4.40;;;16.10;94.90;;;;;;5029717;28;20048;-41
2021/08/25 00:40:37;;;;;;;6.95;4.32;;;16.10;95.00;;;;;;5030018;28;20057;-41
2021/08/25 00:43:07;;;;;;;6.05;4.05;;;16.10;95.10;;;;;;5030077;28;20017;-41
2021/08/25 00:45:43;;;;;;;6.45;4.40;;;16.10;95.30;;;;;;5029245;28;20017;-38
2021/08/25 00:48:12;;;;;;;6.57;4.43;;;16.10;95.40;;;;;;5029489;28;20405;-39
2021/08/25 00:50:39;;;;;;;6.88;4.20;;;16.10;95.40;;;;;;5029733;28;20030;-39
2021/08/25 00:53:06;;;;;;;7.65;4.70;;;16.00;95.50;;;;;;5028781;28;20022;-37
2021/08/25 00:55:39;;;;;;;6.43;4.40;;;16.00;95.70;;;;;;5029181;28;20022;-40
2021/08/25 00:58:07;;;;;;;7.18;4.63;;;16.00;95.80;;;;;;5029854;28;20037;-38
2021/08/25 01:00:41;;;;;;;5.93;4.13;;;16.00;95.80;;;;;;5029382;28;20041;-40
2021/08/25 01:03:17;;;;;;;8.27;4.72;;;15.90;96.00;;;;;;5029942;28;20026;-39
2021/08/25 01:05:43;;;;;;;5.82;3.90;;;15.80;96.20;;;;;;5028650;28;20030;-41
2021/08/25 01:08:12;;;;;;;6.60;4.57;;;15.80;96.20;;;;;;5029601;28;20033;-36
2021/08/25 01:10:38;;;;;;;5.75;4.05;;;15.80;96.30;;;;;;5029256;28;20035;-41
2021/08/25 01:13:07;;;;;;;6.85;4.18;;;15.80;96.40;;;;;;5028855;28;20489;-40
2021/08/25 01:15:37;;;;;;;6.32;3.85;;;15.80;96.40;;;;;;5028763;28;20041;-38
2021/08/25 01:18:11;;;;;;;7.60;4.57;;;15.80;96.50;;;;;;5029207;28;20604;-39
2021/08/25 01:20:47;;;;;;;5.22;3.65;;;15.70;96.70;;;;;;5028891;28;20029;-38
2021/08/25 01:23:13;;;;;;;6.32;4.30;;;15.70;96.70;;;;;;5029000;28;20045;-35
2021/08/25 01:25:40;;;;;;;5.30;3.95;;;15.70;96.70;;;;;;5028479;28;20069;-38
2021/08/25 01:28:10;;;;;;;7.18;3.97;;;15.70;96.80;;;;;;5028727;28;20300;-34
2021/08/25 01:30:40;;;;;;;7.13;4.20;;;15.70;96.80;;;;;;5028884;28;20100;-35
2021/08/25 01:33:05;;;;;;;5.28;3.78;;;15.70;96.90;;;;;;5029095;28;20481;-39
2021/08/25 01:35:41;;;;;;;5.53;3.75;;;15.70;96.90;;;;;;5028424;28;20211;-41
2021/08/25 01:38:08;;;;;;;7.35;3.72;;;15.70;96.90;;;;;;5029378;28;20068;-41
2021/08/25 01:40:35;;;;;;;6.20;4.35;;;15.70;96.90;;;;;;5028985;28;20096;-42
2021/08/25 01:43:06;;;;;;;6.53;4.07;;;15.70;97.00;;;;;;5028607;28;20405;-42
2021/08/25 01:45:33;;;;;;;6.65;4.43;;;15.70;97.10;;;;;;5028948;28;20029;-41
2021/08/25 01:47:58;;;;;;;5.50;4.53;;;15.70;97.10;;;;;;5028741;28;20061;-39
2021/08/25 01:50:24;;;;;;;7.75;4.57;;;15.60;97.10;;;;;;5028577;28;20084;-36
2021/08/25 01:52:49;;;;;;;5.50;3.75;;;15.60;97.20;;;;;;5028623;28;20029;-39
2021/08/25 01:55:15;;;;;;;4.70;3.92;;;15.60;97.30;;;;;;5028333;28;20104;-37
2021/08/25 01:57:40;;;;;;;6.90;4.50;;;15.60;97.40;;;;;;5028380;28;20030;-33
2021/08/25 02:00:07;;;;;;;7.90;4.60;;;15.60;97.60;;;;;;5029037;28;20028;-36
2021/08/25 02:02:32;;;;;;;6.28;4.40;;;15.50;97.80;;;;;;5028303;28;20029;-35
2021/08/25 02:04:58;;;;;;;8.73;5.68;;;15.50;97.90;;;;;;5028215;28;20026;-35
2021/08/25 02:07:24;;;;;;;6.25;5.20;;;15.50;98.10;;;;;;5028671;28;20025;-40
2021/08/25 02:09:49;;;;;;;7.45;5.38;;;15.40;98.10;;;;;;5027743;28;20461;-33
2021/08/25 02:12:15;;;;;;;7.65;4.97;;;15.40;98.40;;;;;;5028637;28;20036;-37
2021/08/25 02:14:40;;;;;;;7.63;5.32;;;15.40;98.40;;;;;;5028012;28;20053;-40
2021/08/25 02:17:06;;;;;;;7.20;4.82;;;15.40;98.30;;;;;;5028368;28;20029;-40
2021/08/25 02:19:33;;;;;;;6.45;4.93;;;15.40;98.30;;;;;;5028615;28;20029;-38
2021/08/25 02:21:58;;;;;;;6.22;4.40;;;15.40;98.40;;;;;;5028062;28;20009;-39
2021/08/25 02:24:24;;;;;;;6.93;4.70;;;15.40;98.50;;;;;;5028956;28;20168;-38
2021/08/25 02:26:50;;;;;;;7.20;4.63;;;15.30;98.50;;;;;;5028803;28;20041;-34
2021/08/25 02:29:19;;;;;;;6.03;4.50;;;15.40;98.50;;;;;;5033029;28;20047;-41
2021/08/25 02:31:45;;;;;;;5.80;4.07;;;15.30;98.50;;;;;;5031760;28;20014;-40
2021/08/25 02:34:10;;;;;;;6.50;4.25;;;15.30;98.40;;;;;;5032466;28;20040;-39
2021/08/25 02:36:36;;;;;;;5.82;4.40;;;15.30;98.50;;;;;;5032604;28;20567;-38
2021/08/25 02:39:02;;;;;;;6.70;4.35;;;15.40;98.40;;;;;;5031714;28;20452;-35
2021/08/25 02:41:28;;;;;;;5.00;4.03;;;15.40;98.40;;;;;;5032672;28;20568;-39
2021/08/25 02:43:53;;;;;;;6.13;3.80;;;15.40;98.30;;;;;;5031177;28;20032;-39
2021/08/25 02:46:22;;;;;;;5.65;3.83;;;15.40;98.30;;;;;;5031900;28;20075;-39
2021/08/25 02:48:48;;;;;;;5.72;3.75;;;15.40;98.40;;;;;;5031545;28;20388;-39
2021/08/25 02:51:17;;;;;;;4.45;3.58;;;15.40;98.50;;;;;;5032020;28;20072;-37
2021/08/25 02:53:42;;;;;;;6.47;4.00;;;15.30;98.60;;;;;;5031682;28;20060;-35
2021/08/25 02:56:08;;;;;;;6.18;3.65;;;15.30;98.70;;;;;;5031653;28;20063;-40
2021/08/25 02:58:34;;;;;;;6.50;4.15;;;15.30;98.70;;;;;;5031642;28;20064;-38
2021/08/25 03:00:59;;;;;;;6.25;3.70;;;15.30;98.60;;;;;;5031680;28;20032;-36
2021/08/25 03:03:28;;;;;;;5.90;4.05;;;15.30;98.60;;;;;;5031687;28;20014;-35
2021/08/25 03:05:53;;;;;;;5.28;3.63;;;15.30;98.60;;;;;;5031460;28;20113;-40
2021/08/25 03:08:19;;;;;;;5.50;3.65;;;15.30;98.60;;;;;;5031599;28;20514;-37
2021/08/25 03:10:44;;;;;;;5.10;3.88;;;15.30;98.60;;;;;;5031693;28;20053;-37
2021/08/25 03:13:10;;;;;;;6.38;3.95;;;15.30;98.60;;;;;;5031092;28;20124;-35
2021/08/25 03:15:35;;;;;;;5.20;4.20;;;15.30;98.60;;;;;;5030879;28;20111;-36
2021/08/25 03:18:01;;;;;;;5.60;4.00;;;15.20;98.60;;;;;;5031563;28;20038;-40
2021/08/25 03:20:27;;;;;;;5.63;3.47;;;15.20;98.60;;;;;;5031426;28;20045;-40
2021/08/25 03:22:52;;;;;;;8.13;4.10;;;15.20;98.70;;;;;;5031251;28;20025;-37
2021/08/25 03:25:18;;;;;;;6.10;3.78;;;15.10;98.80;;;;;;5031500;28;20113;-40
2021/08/25 03:27:43;;;;;;;5.25;3.83;;;15.10;99.00;;;;;;5030140;28;20025;-38
2021/08/25 03:30:09;;;;;;;4.80;3.80;;;15.10;99.10;;;;;;5031493;28;20045;-38
2021/08/25 03:32:38;;;;;;;4.85;3.88;;;15.00;99.20;;;;;;5031577;28;20443;-40
2021/08/25 03:35:04;;;;;;;7.20;4.28;;;15.00;99.40;;;;;;5030747;28;20025;-38
2021/08/25 03:37:30;;;;;;;6.95;5.18;;;14.90;99.50;;;;;;5031099;28;20021;-39
2021/08/25 03:39:55;;;;;;;5.22;4.25;;;14.90;99.60;;;;;;5029438;28;20089;-37
2021/08/25 03:42:21;;;;;;;6.18;4.07;;;14.90;99.70;;;;;;5030796;28;20032;-35
2021/08/25 03:44:46;;;;;;;6.28;4.05;;;14.80;99.80;;;;;;5030410;28;20018;-37
2021/08/25 03:47:12;;;;;;;6.10;4.68;;;14.80;99.90;;;;;;5031597;28;20043;-39
2021/08/25 03:49:38;;;;;;;6.05;4.25;;;14.80;99.90;;;;;;5030915;28;20104;-39
2021/08/25 03:52:04;;;;;;;7.57;4.63;;;14.80;99.90;;;;;;5031228;28;20442;-39
2021/08/25 03:54:30;;;;;;;6.43;4.53;;;14.80;99.90;;;;;;5030652;28;20041;-40
2021/08/25 03:56:58;;;;;;;5.82;4.22;;;14.70;99.90;;;;;;5030023;28;20026;-39
2021/08/25 03:59:23;;;;;;;5.88;4.47;;;14.70;99.90;;;;;;5031156;28;20120;-38
2021/08/25 04:01:50;;;;;;;6.10;4.50;;;14.70;99.90;;;;;;5029549;28;20024;-36
2021/08/25 04:04:16;;;;;;;7.32;4.63;;;14.70;99.90;;;;;;5031141;28;20080;-37
2021/08/25 04:06:42;;;;;;;7.43;4.53;;;14.60;99.90;;;;;;5030210;28;20117;-39
2021/08/25 04:09:07;;;;;;;5.63;4.28;;;14.60;99.90;;;;;;5029762;28;20508;-39
2021/08/25 04:11:33;;;;;;;7.95;4.68;;;14.60;99.90;;;;;;5030962;28;20022;-39
2021/08/25 04:14:00;;;;;;;6.03;4.18;;;14.50;99.90;;;;;;5030538;28;20021;-39
2021/08/25 04:16:29;;;;;;;4.93;3.95;;;14.50;99.90;;;;;;5029333;28;20418;-35
2021/08/25 04:18:56;;;;;;;6.25;4.30;;;14.50;99.90;;;;;;5029706;28;20576;-39
2021/08/25 04:21:25;;;;;;;5.63;4.38;;;14.40;99.90;;;;;;5030611;28;20039;-40
2021/08/25 04:23:51;;;;;;;6.80;4.82;;;14.40;99.90;;;;;;5029174;28;20029;-37
2021/08/25 04:26:16;;;;;;;5.70;4.20;;;14.50;99.90;;;;;;5030173;28;20488;-39
2021/08/25 04:28:42;;;;;;;5.18;4.22;;;14.40;99.90;;;;;;5029774;28;20100;-38
2021/08/25 04:31:08;;;;;;;6.80;4.53;;;14.40;99.90;;;;;;5029132;28;20432;-39
2021/08/25 04:33:36;;;;;;;5.57;4.13;;;14.40;99.90;;;;;;5030398;28;20017;-38
2021/08/25 04:36:03;;;;;;;5.80;4.32;;;14.40;99.90;;;;;;5029964;28;20461;-38
2021/08/25 04:38:29;;;;;;;6.93;4.47;;;14.40;99.90;;;;;;5029901;28;20037;-37
2021/08/25 04:40:57;;;;;;;8.02;4.68;;;14.30;99.90;;;;;;5028837;28;20072;-34
2021/08/25 04:43:27;;;;;;;7.18;4.50;;;14.30;99.90;;;;;;5030103;28;20045;-39
2021/08/25 04:45:52;;;;;;;6.28;4.70;;;14.30;99.90;;;;;;5029246;28;20079;-37
2021/08/25 04:48:21;;;;;;;5.35;4.28;;;14.30;99.90;;;;;;5030196;28;20021;-34
2021/08/25 04:50:47;;;;;;;5.80;4.10;;;14.30;99.90;;;;;;5028388;28;20092;-39
2021/08/25 04:53:12;;;;;;;7.43;4.60;;;14.20;99.90;;;;;;5029598;28;20024;-35
2021/08/25 04:55:38;;;;;;;6.38;4.38;;;14.30;99.90;;;;;;5029489;28;20033;-38
2021/08/25 04:58:04;;;;;;;6.43;4.32;;;14.20;99.90;;;;;;5028346;28;20030;-38
2021/08/25 05:00:30;;;;;;;6.78;4.75;;;14.30;99.90;;;;;;5029552;28;20053;-36
2021/08/25 05:02:59;;;;;;;6.53;4.97;;;14.30;99.90;;;;;;5028121;28;20505;-34
2021/08/25 05:05:25;;;;;;;6.80;4.90;;;14.30;99.90;;;;;;5028618;28;20044;-38
2021/08/25 05:07:53;;;;;;;6.70;4.80;;;14.30;99.90;;;;;;5028645;28;20030;-38
2021/08/25 05:10:19;;;;;;;8.15;5.10;;;14.30;99.90;;;;;;5029014;28;20508;-39
2021/08/25 05:12:47;;;;;;;5.55;4.38;;;14.30;99.90;;;;;;5027998;28;20037;-39
2021/08/25 05:15:13;;;;;;;6.78;4.93;;;14.30;99.90;;;;;;5029279;28;20121;-37
2021/08/25 05:17:39;;;;;;;6.55;5.07;;;14.40;99.90;;;;;;5028035;28;20037;-37
2021/08/25 05:20:06;;;;;;;6.95;4.63;;;14.30;99.90;;;;;;5028762;28;20026;-39
2021/08/25 05:22:32;;;;;;;7.68;5.00;;;14.30;99.90;;;;;;5028641;28;20032;-34
2021/08/25 05:24:58;;;;;;;6.60;4.40;;;14.30;99.90;;;;;;5027370;28;20493;-37
2021/08/25 05:27:23;;;;;;;6.18;4.80;;;14.40;99.90;;;;;;5027823;28;20495;-40
2021/08/25 05:29:49;;;;;;;5.85;4.30;;;14.30;99.90;;;;;;5027673;28;20030;-40
2021/08/25 05:32:17;;;;;;;5.65;4.63;;;14.40;99.90;;;;;;5029429;28;20029;-37
2021/08/25 05:34:46;;;;;;;5.25;4.25;;;14.40;99.90;;;;;;5028156;28;20025;-39
2021/08/25 05:37:11;;;;;;;6.18;4.22;;;14.40;99.90;;;;;;5029191;28;20024;-38
2021/08/25 05:39:37;;;;;;;5.30;4.00;;;14.40;99.90;;;;;;5028304;28;20033;-37
2021/08/25 05:42:03;;;;;;;5.72;3.88;;;14.40;99.90;;;;;;5028074;28;20032;-36
2021/08/25 05:44:28;;;;;;;6.53;4.40;;;14.40;99.90;;;;;;5027935;28;20021;-37
2021/08/25 05:46:54;;;;;;;6.82;4.30;;;14.40;99.90;;;;;;5027865;28;20170;-39
2021/08/25 05:49:19;;;;;;;5.85;4.15;;;14.40;99.90;;;;;;5028431;28;20532;-35
2021/08/25 05:51:45;;;;;;;7.35;4.82;;;14.40;99.90;;;;;;5028423;28;20036;-37
2021/08/25 05:54:13;;;;;;;7.65;4.45;;;14.50;99.90;;;;;;5027976;28;20048;-40
2021/08/25 05:56:39;;;;;;;6.68;4.30;;;14.50;99.90;;;;;;5028547;28;20110;-41
2021/08/25 05:59:05;;;;;;;6.03;4.03;;;14.40;99.90;;;;;;5027473;28;20481;-37
2021/08/25 06:01:30;;;;;;;5.25;4.18;;;14.50;99.90;;;;;;5025292;28;20032;-38
2021/08/25 06:03:56;;;;;;;7.80;4.63;;;14.50;99.90;;;;;;5031360;28;20103;-39
2021/08/25 06:06:21;;;;;;;5.75;4.32;;;14.60;99.90;;;;;;5031156;28;20024;-38
2021/08/25 06:08:53;;;;;;;6.80;4.90;;;14.60;99.90;;;;;;5030848;28;20051;-36
2021/08/25 06:11:25;;;;;;;5.25;4.13;;;14.60;99.90;;;;;;5031631;28;20040;-37
2021/08/25 06:13:50;;;;;;;5.57;4.37;;;14.60;99.90;;;;;;5031194;28;20026;-38
2021/08/25 06:16:16;;;;;;;5.85;4.00;;;14.70;99.90;;;;;;5031095;28;20632;-37
2021/08/25 06:18:44;;;;;;;5.15;3.97;;;14.70;99.90;;;;;;5031259;28;20500;-40
2021/08/25 06:21:19;;;;;;;5.13;4.20;;;14.70;99.90;;;;;;5032373;28;20021;-36
2021/08/25 06:24:08;;;;;;;7.30;4.80;;;14.80;99.90;;;;;;5031788;28;20100;-39
2021/08/25 06:26:33;;;;;;;8.57;4.75;;;14.80;99.90;;;;;;5033701;28;20112;-41
2021/08/25 06:29:01;;;;;;;5.38;3.88;;;14.80;99.90;;;;;;5030481;28;20143;-34
2021/08/25 06:31:27;;;;;;;5.78;3.92;;;14.90;99.90;;;;;;5031195;28;20425;-40
2021/08/25 06:33:53;;;;;;;7.95;4.40;;;14.90;99.90;;;;;;5032146;28;20111;-39
2021/08/25 06:36:21;;;;;;;5.32;4.00;;;15.00;99.90;;;;;;5034855;28;20444;-38
2021/08/25 06:38:46;;;;;;;5.82;3.88;;;15.00;99.90;;;;;;5031597;28;20039;-40
2021/08/25 06:41:12;;;;;;;5.65;4.07;;;15.00;99.90;;;;;;5032551;28;20028;-37
2021/08/25 06:43:37;;;;;;;5.18;4.03;;;15.00;99.90;;;;;;5030614;28;20029;-39
2021/08/25 06:46:03;;;;;;;5.50;3.72;;;15.00;99.90;;;;;;5031537;28;20079;-39
2021/08/25 06:48:28;;;;;;;5.68;4.05;;;15.10;99.90;;;;;;5032602;28;20109;-37
2021/08/25 06:50:54;;;;;;;4.45;3.08;;;15.10;99.90;;;;;;5030723;28;20350;-35
2021/08/25 06:53:22;;;;;;;4.28;3.53;;;15.20;99.90;;;;;;5032182;28;20384;-34
2021/08/25 06:55:48;;;;;;;7.18;3.55;;;15.20;99.90;;;;;;5030754;28;20488;-37
2021/08/25 06:58:17;;;;;;;5.18;3.67;;;15.30;99.90;;;;;;5031765;28;20389;-39
2021/08/25 07:00:42;;;;;;;4.35;3.47;;;15.30;99.90;;;;;;5032004;28;20044;-36
2021/08/25 07:03:08;;;;;;;4.20;3.28;;;15.40;99.90;;;;;;5031273;28;20045;-38
2021/08/25 07:05:34;;;;;;;6.28;4.07;;;15.40;99.90;;;;;;5031781;28;20096;-38
2021/08/25 07:08:00;;;;;;;5.03;3.70;;;15.50;99.90;;;;;;5030863;28;20120;-39
2021/08/25 07:10:26;;;;;;;7.32;3.75;;;15.50;99.90;;;;;;5032270;28;20033;-38
2021/08/25 07:12:52;;;;;;;5.43;4.30;;;15.60;99.90;;;;;;5029606;28;20021;-39
2021/08/25 07:15:18;;;;;;;5.80;4.28;;;15.70;99.90;;;;;;5031401;28;20572;-40
2021/08/25 07:17:44;;;;;;;6.85;4.05;;;15.70;99.90;;;;;;5030941;28;20018;-37
2021/08/25 07:20:11;;;;;;;6.25;3.72;;;15.70;99.90;;;;;;5030427;28;20025;-37
2021/08/25 07:22:37;;;;;;;4.75;3.85;;;15.80;99.90;;;;;;5031002;28;20026;-40
2021/08/25 07:25:04;;;;;;;4.70;3.60;;;15.80;99.90;;;;;;5031118;28;20499;-35
2021/08/25 07:27:29;;;;;;;5.65;4.07;;;15.90;99.90;;;;;;5030876;28;20571;-35
2021/08/25 07:29:55;;;;;;;6.38;4.10;;;15.90;99.90;;;;;;5030989;28;20061;-36
2021/08/25 07:32:20;;;;;;;4.95;3.80;;;16.00;99.90;;;;;;5030437;28;20016;-37
2021/08/25 07:34:46;;;;;;;6.70;4.32;;;16.10;99.90;;;;;;5031070;28;20026;-39
2021/08/25 07:37:11;;;;;;;5.13;3.80;;;16.10;99.90;;;;;;5031035;28;20033;-40
2021/08/25 07:39:37;;;;;;;4.78;3.72;;;16.20;99.90;;;;;;5030843;28;20041;-40
2021/08/25 07:42:03;;;;;;;4.50;3.70;;;16.30;99.90;;;;;;5030412;28;20480;-41
2021/08/25 07:44:28;;;;;;;6.00;3.60;;;16.30;99.90;;;;;;5030252;28;20025;-39
2021/08/25 07:46:55;;;;;;;5.28;3.35;;;16.30;99.90;;;;;;5030218;28;20072;-43
2021/08/25 07:49:21;;;;;;;6.53;3.80;;;16.40;99.90;;;;;;5031207;28;20432;-40
2021/08/25 07:51:47;;;;;;;4.75;3.50;;;16.40;99.90;;;;;;5030781;28;20441;-41
2021/08/25 07:54:13;;;;;;;5.28;3.95;;;16.40;99.90;;;;;;5030000;28;20033;-43
2021/08/25 07:56:39;;;;;;;5.50;4.10;;;16.50;99.90;;;;;;5030454;28;20112;-38
2021/08/25 07:59:04;;;;;;;5.35;3.97;;;16.60;99.90;;;;;;5030070;28;20132;-42
2021/08/25 08:01:31;;;;;;;5.03;3.63;;;16.60;99.90;;;;;;5030957;28;20091;-41
2021/08/25 08:03:56;;;;;;;5.60;3.42;;;16.70;99.90;;;;;;5030346;28;20593;-41
2021/08/25 08:06:22;;;;;;;5.82;3.80;;;16.70;99.90;;;;;;5030843;28;20079;-42
2021/08/25 08:08:47;;;;;;;5.13;3.58;;;16.70;99.90;;;;;;5029660;28;20033;-43
2021/08/25 08:11:13;;;;;;;4.65;3.30;;;16.70;99.90;;;;;;5030847;28;20018;-44
2021/08/25 08:13:39;;;;;;;4.90;3.70;;;16.80;99.90;;;;;;5030090;28;20029;-42
2021/08/25 08:16:05;;;;;;;5.93;4.22;;;16.80;99.90;;;;;;5030040;28;20103;-41
2021/08/25 08:18:35;;;;;;;6.65;3.92;;;16.90;99.90;;;;;;5029427;28;20489;-43
2021/08/25 08:21:05;;;;;;;5.15;3.83;;;17.00;99.90;;;;;;5018325;28;20053;-41
2021/08/25 08:23:31;;;;;;;5.47;3.85;;;17.00;99.90;;;;;;5029913;28;20021;-40
2021/08/25 08:25:57;;;;;;;5.53;3.63;;;17.10;99.90;;;;;;5029565;28;20082;-38
2021/08/25 08:28:23;;;;;;;4.97;3.72;;;17.20;99.90;;;;;;5030743;28;20030;-43
2021/08/25 08:30:49;;;;;;;3.67;2.47;;;17.30;99.90;;;;;;5028739;28;20098;-40
2021/08/25 08:33:15;;;;;;;4.53;2.92;;;17.40;99.90;;;;;;5030441;28;20056;-41
2021/08/25 08:35:40;;;;;;;3.65;2.80;;;17.40;99.90;;;;;;5029523;28;20032;-41
2021/08/25 08:38:06;;;;;;;4.25;2.90;;;17.50;99.90;;;;;;5029732;28;20503;-37
2021/08/25 08:40:33;;;;;;;2.97;2.30;;;17.60;99.80;;;;;;5029099;28;20580;-41
2021/08/25 08:43:07;;;;;;;3.97;2.92;;;17.70;99.70;;;;;;5029384;28;20087;-39
2021/08/25 08:45:38;;;;;;;4.22;2.70;;;17.70;99.60;;;;;;5029591;28;20485;-34
2021/08/25 08:48:34;;;;;;;3.30;2.60;;;17.70;99.40;;;;;;5030068;28;20021;-39
2021/08/25 08:51:00;;;;;;;6.18;3.42;;;17.80;98.80;;;;;;5028617;28;20052;-39
2021/08/25 08:53:25;;;;;;;4.18;3.13;;;17.90;98.60;;;;;;5030295;28;20025;-37
2021/08/25 08:55:51;;;;;;;4.30;2.80;;;18.00;98.50;;;;;;5029136;28;20385;-36
2021/08/25 08:58:16;;;;;;;4.82;3.13;;;18.10;98.50;;;;;;5029956;28;20037;-37
2021/08/25 09:00:45;;;;;;;4.63;3.40;;;18.10;98.00;;;;;;5029732;28;20052;-39
2021/08/25 09:03:22;;;;;;;3.40;2.50;;;18.10;98.10;;;;;;5029940;28;20030;-41
2021/08/25 09:06:01;;;;;;;3.45;2.72;;;18.20;98.20;;;;;;5028591;28;20384;-37
2021/08/25 09:08:33;;;;;;;2.63;2.38;;;18.20;98.00;;;;;;5029805;28;20076;-38
2021/08/25 09:11:10;;;;;;;3.30;2.40;;;18.30;97.90;;;;;;5031945;28;20109;-37
2021/08/25 09:13:49;;;;;;;3.00;2.40;;;18.30;97.50;;;;;;5037635;28;20033;-38
2021/08/25 09:16:29;;;;;;;5.18;2.80;;;18.40;96.90;;;;;;5032347;28;20053;-40
2021/08/25 09:19:08;;;;;;;6.00;3.03;;;18.50;96.40;;;;;;5032901;28;20094;-37
2021/08/25 09:21:53;;;;;;;4.10;2.63;;;18.50;96.20;;;;;;5032320;28;20136;-39
2021/08/25 09:24:24;;;;;;;4.80;2.97;;;18.60;96.20;;;;;;5035015;28;20025;-39
2021/08/25 09:27:10;;;;;;;3.70;2.72;;;18.60;95.40;;;;;;5032496;28;20021;-38
2021/08/25 09:29:41;;;;;;;6.13;3.05;;;18.70;94.20;;;;;;5032503;28;20025;-41
2021/08/25 09:32:25;;;;;;;3.83;3.08;;;18.80;94.50;;;;;;5030864;28;20025;-39
2021/08/25 09:34:55;;;;;;;4.53;3.08;;;18.90;94.30;;;;;;5033746;28;20024;-41
2021/08/25 09:37:22;;;;;;;3.97;2.58;;;18.90;94.00;;;;;;5029782;28;20045;-41
2021/08/25 09:39:51;;;;;;;4.38;2.55;;;19.00;93.90;;;;;;5031267;28;20094;-41
2021/08/25 09:42:19;;;;;;;3.58;2.67;;;19.00;94.10;;;;;;5031906;28;20017;-41
2021/08/25 09:44:46;;;;;;;4.03;2.70;;;19.00;93.80;;;;;;5033160;28;20028;-34
2021/08/25 09:47:12;;;;;;;3.28;2.38;;;19.00;93.80;;;;;;5029664;28;20046;-40
2021/08/25 09:49:39;;;;;;;3.85;2.75;;;19.00;92.60;;;;;;5032789;28;20080;-35
2021/08/25 09:52:05;;;;;;;3.67;2.72;;;19.00;92.20;;;;;;5032749;28;20021;-41
2021/08/25 09:54:32;;;;;;;3.60;2.40;;;19.10;92.40;;;;;;5034624;28;20524;-40
2021/08/25 09:56:57;;;;;;;4.18;2.95;;;19.10;92.30;;;;;;5031636;28;20393;-38
2021/08/25 09:59:24;;;;;;;4.80;2.58;;;19.10;92.10;;;;;;5031486;28;20571;-39
2021/08/25 10:01:52;;;;;;;4.20;2.97;;;19.10;91.80;;;;;;5031955;28;20095;-42
2021/08/25 10:04:18;;;;;;;4.18;2.58;;;19.10;91.30;;;;;;5035339;28;20017;-40
2021/08/25 10:06:46;;;;;;;4.47;2.88;;;19.20;91.60;;;;;;5034476;28;20022;-40
2021/08/25 10:09:12;;;;;;;4.35;3.00;;;19.20;91.10;;;;;;5029190;28;20017;-39
2021/08/25 10:11:44;;;;;;;4.10;2.90;;;19.30;91.60;;;;;;5032324;28;20115;-37
2021/08/25 10:14:12;;;;;;;3.17;2.58;;;19.40;91.70;;;;;;5026188;28;20123;-39
2021/08/25 10:16:46;;;;;;;4.80;3.08;;;19.40;91.80;;;;;;5027871;28;20034;-39
2021/08/25 10:19:25;;;;;;;3.20;2.55;;;19.40;91.90;;;;;;5034562;28;20434;-40
2021/08/25 10:21:52;;;;;;;4.10;2.42;;;19.40;92.00;;;;;;5032133;28;20441;-41
2021/08/25 10:24:19;;;;;;;4.55;3.10;;;19.40;91.90;;;;;;5031746;28;20018;-40
2021/08/25 10:27:06;;;;;;;4.82;2.80;;;19.40;92.00;;;;;;5037483;28;20029;-41
2021/08/25 10:29:31;;;;;;;3.58;2.75;;;19.50;92.00;;;;;;5029635;28;20040;-40
2021/08/25 10:32:03;;;;;;;4.15;3.15;;;19.50;91.90;;;;;;5032029;28;20022;-34
2021/08/25 10:34:30;;;;;;;7.40;3.78;;;19.60;91.70;;;;;;5036995;28;20021;-40
2021/08/25 10:37:11;;;;;;;5.22;3.30;;;19.60;91.40;;;;;;5035178;28;20036;-39
2021/08/25 10:39:38;;;;;;;6.55;3.80;;;19.80;91.20;;;;;;5032242;28;20021;-35
2021/08/25 10:42:05;;;;;;;5.38;3.50;;;19.80;90.40;;;;;;5031349;28;20496;-41
2021/08/25 10:44:44;;;;;;;4.15;2.95;;;19.80;90.90;;;;;;5033318;28;20037;-39
2021/08/25 10:47:16;;;;;;;5.55;3.47;;;19.80;91.00;;;;;;5033168;28;20029;-40
2021/08/25 10:49:46;;;;;;;4.57;2.97;;;19.80;91.00;;;;;;5030843;28;20021;-40
2021/08/25 10:52:15;;;;;;;4.43;3.10;;;19.80;91.20;;;;;;5031724;28;20021;-38
2021/08/25 10:54:47;;;;;;;7.45;3.95;;;19.80;90.90;;;;;;5031070;28;20057;-38
2021/08/25 10:57:15;;;;;;;7.50;3.90;;;19.90;91.10;;;;;;5031207;28;20544;-38
2021/08/25 10:59:40;;;;;;;4.95;3.47;;;20.00;91.20;;;;;;5030955;28;20041;-38
2021/08/25 11:02:07;;;;;;;6.82;4.30;;;19.90;91.30;;;;;;5031482;28;20022;-38
2021/08/25 11:04:33;;;;;;;6.43;4.00;;;20.00;91.50;;;;;;5030840;28;20026;-38
2021/08/25 11:07:05;;;;;;;5.18;3.78;;;20.00;91.50;;;;;;5030994;28;20112;-39
2021/08/25 11:09:35;;;;;;;5.10;3.38;;;20.00;91.40;;;;;;5031758;28;20033;-34
2021/08/25 11:12:08;;;;;;;6.32;4.05;;;20.10;91.50;;;;;;5030085;28;20025;-39
2021/08/25 11:14:48;;;;;;;7.22;4.82;;;20.20;91.60;;;;;;5031323;28;20045;-40
2021/08/25 11:17:18;;;;;;;6.35;3.83;;;20.20;91.50;;;;;;5033532;28;20072;-38
2021/08/25 11:19:52;;;;;;;7.80;4.50;;;20.30;91.40;;;;;;5034476;28;20532;-38
2021/08/25 11:22:22;;;;;;;4.80;3.78;;;20.40;91.60;;;;;;5030961;28;20094;-40
2021/08/25 11:24:50;;;;;;;4.65;3.60;;;20.50;91.00;;;;;;5029243;28;20022;-37
2021/08/25 11:27:20;;;;;;;6.18;4.60;;;20.50;90.30;;;;;;5031306;28;20076;-39
2021/08/25 11:30:12;;;;;;;5.63;4.90;;;20.60;91.10;;;;;;5030301;28;20061;-38
2021/08/25 11:32:59;;;;;;;6.13;4.30;;;20.60;91.50;;;;;;5021173;28;20444;-37
2021/08/25 11:35:31;;;;;;;5.65;4.35;;;20.70;91.80;;;;;;5030850;28;20049;-39
2021/08/25 11:38:00;;;;;;;4.95;3.70;;;20.80;91.80;;;;;;5030164;28;20033;-40
2021/08/25 11:40:27;;;;;;;5.82;4.22;;;20.90;91.90;;;;;;5030747;28;20083;-37
2021/08/25 11:42:52;;;;;;;5.93;4.72;;;21.00;91.90;;;;;;5029972;28;20045;-36
2021/08/25 11:45:28;;;;;;;6.75;4.72;;;21.00;91.80;;;;;;5030795;28;20075;-41
2021/08/25 11:47:58;;;;;;;5.22;4.18;;;21.00;91.80;;;;;;5034443;28;20032;-36
2021/08/25 11:50:26;;;;;;;6.38;4.60;;;20.90;91.90;;;;;;5039775;28;20032;-39
2021/08/25 11:52:52;;;;;;;7.13;4.50;;;20.80;91.90;;;;;;5040328;28;20108;-36
2021/08/25 11:55:18;;;;;;;5.60;4.30;;;20.80;91.50;;;;;;5039062;28;20025;-38
2021/08/25 11:57:46;;;;;;;5.07;3.90;;;20.80;91.60;;;;;;5039450;28;20544;-36
2021/08/25 12:00:17;;;;;;;5.55;3.80;;;20.80;91.60;;;;;;5038459;28;20029;-39
2021/08/25 12:02:54;;;;;;;6.43;4.43;;;20.80;91.60;;;;;;5040406;28;20100;-38
2021/08/25 12:05:29;;;;;;;7.65;4.57;;;20.80;91.40;;;;;;5041143;28;20028;-34
2021/08/25 12:08:07;;;;;;;6.38;4.65;;;20.80;90.90;;;;;;5037990;28;20113;-36
2021/08/25 12:10:38;;;;;;;5.25;4.05;;;20.80;91.00;;;;;;5038155;28;20029;-40
2021/08/25 12:13:04;;;;;;;7.07;4.15;;;20.90;91.20;;;;;;5037393;28;20099;-38
2021/08/25 12:15:48;;;;;;;6.78;4.13;;;21.00;91.30;;;;;;5039388;28;20064;-38
2021/08/25 12:18:19;;;;;;;6.20;4.75;;;21.10;91.10;;;;;;5037154;28;20025;-38
2021/08/25 12:20:47;;;;;;;4.20;3.27;;;21.10;90.80;;;;;;5038445;28;20014;-38
2021/08/25 12:23:15;;;;;;;5.13;4.10;;;21.10;91.10;;;;;;5040752;28;20116;-36
2021/08/25 12:25:52;;;;;;;5.07;3.80;;;21.10;91.30;;;;;;5039754;28;20368;-38
2021/08/25 12:28:32;;;;;;;5.40;3.55;;;21.10;91.10;;;;;;5037484;28;20111;-36
2021/08/25 12:31:13;;;;;;;5.95;3.92;;;21.10;91.20;;;;;;5039352;28;20029;-39
2021/08/25 12:33:39;;;;;;;6.10;3.55;;;21.20;91.10;;;;;;5036796;28;20041;-37
2021/08/25 12:36:26;;;;;;;4.55;2.92;;;21.10;90.90;;;;;;5034990;28;20627;-41
2021/08/25 12:38:53;;;;;;;5.85;4.00;;;21.20;91.20;;;;;;5037609;28;20083;-40
2021/08/25 12:41:20;;;;;;;6.63;3.50;;;21.40;91.10;;;;;;5038343;28;20032;-37
2021/08/25 12:43:47;;;;;;;5.70;4.00;;;21.40;91.00;;;;;;5039134;28;20025;-38
2021/08/25 12:46:12;;;;;;;5.57;3.47;;;21.50;91.20;;;;;;5039198;28;20413;-40
2021/08/25 12:48:38;;;;;;;5.28;3.28;;;21.60;91.00;;;;;;5038378;28;20022;-36
2021/08/25 12:51:04;;;;;;;6.05;3.60;;;21.70;91.20;;;;;;5037369;28;20029;-35
2021/08/25 12:53:29;;;;;;;7.28;3.38;;;21.80;91.30;;;;;;5039811;28;20086;-37